createdAt,value
2022-08-10T00:00:39.580Z,101197.17
2022-08-10T00:03:07.790Z,101196.10
2022-08-10T00:05:43.701Z,101197.36
2022-08-10T00:08:23.969Z,101195.37
2022-08-10T00:10:57.073Z,101191.48
2022-08-10T00:13:26.151Z,101193.95
2022-08-10T00:15:55.254Z,101195.21
2022-08-10T00:18:34.449Z,101190.23
2022-08-10T00:21:08.216Z,101191.58
2022-08-10T00:23:36.902Z,101192.93
2022-08-10T00:26:05.911Z,101191.40
2022-08-10T00:28:33.838Z,101189.41
2022-08-10T00:31:01.918Z,101192.45
2022-08-10T00:33:29.595Z,101190.63
2022-08-10T00:35:57.220Z,101188.59
2022-08-10T00:38:24.800Z,101190.65
2022-08-10T00:40:52.452Z,101187.69
2022-08-10T00:43:23.678Z,101185.05
2022-08-10T00:45:58.543Z,101189.59
2022-08-10T00:48:29.905Z,101189.27
2022-08-10T00:50:59.343Z,101186.75
2022-08-10T00:53:28.329Z,101194.41
2022-08-10T00:57:07.848Z,101192.38
2022-08-10T00:58:46.075Z,101196.23
2022-08-10T01:02:07.350Z,101197.65
2022-08-10T01:04:39.766Z,101202.52
2022-08-10T01:07:08.133Z,101205.95
2022-08-10T01:10:03.043Z,101210.05
2022-08-10T01:12:41.701Z,101212.55
2022-08-10T01:15:28.135Z,101209.61
2022-08-10T01:18:18.569Z,101210.16
2022-08-10T01:21:15.684Z,101211.58
2022-08-10T01:23:57.769Z,101207.48
2022-08-10T01:26:56.331Z,101210.92
2022-08-10T01:29:33.550Z,101212.10
2022-08-10T01:32:04.780Z,101207.77
2022-08-10T01:34:49.628Z,101206.58
2022-08-10T01:37:23.187Z,101203.89
2022-08-10T01:39:56.863Z,101199.85
2022-08-10T01:42:28.296Z,101201.57
2022-08-10T01:44:59.433Z,101206.96
2022-08-10T01:47:49.536Z,101208.15
2022-08-10T01:50:33.066Z,101209.88
2022-08-10T01:53:11.793Z,101213.77
2022-08-10T01:55:41.600Z,101216.96
2022-08-10T01:58:11.607Z,101214.59
2022-08-10T02:00:43.077Z,101215.55
2022-08-10T02:03:12.367Z,101214.63
2022-08-10T02:05:44.241Z,101217.43
2022-08-10T02:08:15.196Z,101216.29
2022-08-10T02:10:45.216Z,101214.02
2022-08-10T02:13:16.237Z,101212.72
2022-08-10T02:16:02.022Z,101210.64
2022-08-10T02:18:32.744Z,101212.39
2022-08-10T02:21:04.051Z,101214.38
2022-08-10T02:23:34.513Z,101214.47
2022-08-10T02:26:04.299Z,101216.27
2022-08-10T02:28:34.162Z,101213.66
2022-08-10T02:31:06.916Z,101216.97
2022-08-10T02:33:38.727Z,101215.96
2022-08-10T02:36:27.751Z,101218.07
2022-08-10T02:39:00.703Z,101219.20
2022-08-10T02:45:02.314Z,101220.98
2022-08-10T02:45:19.859Z,101219.36
2022-08-10T02:48:00.247Z,101221.27
2022-08-10T02:50:46.908Z,101217.20
2022-08-10T02:53:54.700Z,101214.59
2022-08-10T02:56:43.257Z,101215.37
2022-08-10T02:59:20.028Z,101217.61
2022-08-10T03:01:49.793Z,101220.74
2022-08-10T03:04:21.565Z,101217.37
2022-08-10T03:07:13.110Z,101218.34
2022-08-10T03:09:41.937Z,101220.63
2022-08-10T03:12:35.559Z,101220.87
2022-08-10T03:15:02.784Z,101221.31
2022-08-10T03:17:32.934Z,101219.07
2022-08-10T03:20:33.956Z,101222.14
2022-08-10T03:22:52.542Z,101221.33
2022-08-10T03:25:23.793Z,101222.42
2022-08-10T03:27:52.778Z,101225.97
2022-08-10T03:30:28.459Z,101226.38
2022-08-10T03:33:03.994Z,101232.48
2022-08-10T03:35:32.346Z,101234.99
2022-08-10T03:38:01.239Z,101233.09
2022-08-10T03:40:45.280Z,101233.92
2022-08-10T03:43:18.261Z,101237.66
2022-08-10T03:45:55.787Z,101236.73
2022-08-10T03:48:42.436Z,101235.73
2022-08-10T03:51:16.618Z,101236.16
2022-08-10T03:54:04.690Z,101237.70
2022-08-10T03:56:34.759Z,101242.50
2022-08-10T03:59:02.665Z,101242.80
2022-08-10T04:02:43.754Z,101241.09
2022-08-10T04:04:24.674Z,101242.51
2022-08-10T04:06:55.998Z,101245.05
2022-08-10T04:09:55.728Z,101242.92
2022-08-10T04:12:15.487Z,101247.03
2022-08-10T04:14:50.982Z,101248.56
2022-08-10T04:18:01.205Z,101250.14
2022-08-10T04:20:41.874Z,101250.34
2022-08-10T04:23:15.776Z,101252.48
2022-08-10T04:25:43.867Z,101248.80
2022-08-10T04:28:12.060Z,101250.52
2022-08-10T04:30:41.676Z,101249.41
2022-08-10T04:33:11.074Z,101250.88
2022-08-10T04:35:39.545Z,101254.06
2022-08-10T04:38:09.244Z,101251.36
2022-08-10T04:40:37.722Z,101256.30
2022-08-10T04:43:12.802Z,101259.80
2022-08-10T04:45:48.460Z,101260.73
2022-08-10T04:48:42.967Z,101258.09
2022-08-10T04:51:17.749Z,101265.07
2022-08-10T04:54:04.480Z,101259.97
2022-08-10T04:56:37.246Z,101258.00
2022-08-10T04:59:07.418Z,101259.91
2022-08-10T05:02:21.289Z,101257.94
2022-08-10T05:04:35.057Z,101257.69
2022-08-10T05:07:18.130Z,101258.50
2022-08-10T05:10:03.787Z,101258.02
2022-08-10T05:12:37.402Z,101257.95
2022-08-10T05:15:12.139Z,101258.06
2022-08-10T05:18:06.932Z,101258.75
2022-08-10T05:20:29.364Z,101261.84
2022-08-10T05:22:57.234Z,101262.83
2022-08-10T05:25:24.892Z,101266.46
2022-08-10T05:27:52.649Z,101271.49
2022-08-10T05:30:22.288Z,101271.98
2022-08-10T05:32:56.164Z,101269.79
2022-08-10T05:35:56.417Z,101269.27
2022-08-10T05:38:18.344Z,101270.31
2022-08-10T05:40:48.404Z,101269.70
2022-08-10T05:43:21.618Z,101268.52
2022-08-10T05:46:19.210Z,101270.55
2022-08-10T05:48:56.967Z,101272.00
2022-08-10T05:51:29.717Z,101274.38
2022-08-10T05:54:01.106Z,101277.06
2022-08-10T05:56:56.528Z,101278.48
2022-08-10T06:00:32.386Z,101276.73
2022-08-10T06:02:35.732Z,101274.02
2022-08-10T06:05:14.584Z,101273.02
2022-08-10T06:07:51.879Z,101270.31
2022-08-10T06:10:32.517Z,101269.42
2022-08-10T06:13:30.477Z,101268.86
2022-08-10T06:16:06.278Z,101266.87
2022-08-10T06:18:34.035Z,101267.71
2022-08-10T06:21:02.124Z,101268.23
2022-08-10T06:23:31.569Z,101266.34
2022-08-10T06:26:10.904Z,101261.34
2022-08-10T06:28:52.946Z,101260.86
2022-08-10T06:31:48.237Z,101257.80
2022-08-10T06:34:30.762Z,101262.48
2022-08-10T06:37:02.828Z,101260.05
2022-08-10T06:39:35.611Z,101264.59
2022-08-10T06:42:17.535Z,101261.96
2022-08-10T06:44:53.742Z,101260.61
2022-08-10T06:47:26.516Z,101260.27
2022-08-10T06:49:59.648Z,101263.79
2022-08-10T06:52:32.659Z,101267.58
2022-08-10T06:55:05.543Z,101265.34
2022-08-10T06:57:38.768Z,101265.41
2022-08-10T07:00:08.499Z,101267.19
2022-08-10T07:02:50.677Z,101267.20
2022-08-10T07:05:25.840Z,101268.99
2022-08-10T07:07:58.086Z,101266.95
2022-08-10T07:10:45.549Z,101266.81
2022-08-10T07:14:14.607Z,101272.46
2022-08-10T07:16:28.552Z,101268.92
2022-08-10T07:18:58.639Z,101266.11
2022-08-10T07:21:28.886Z,101264.40
2022-08-10T07:24:00.849Z,101263.77
2022-08-10T07:26:30.852Z,101272.98
2022-08-10T07:28:59.463Z,101270.62
2022-08-10T07:31:51.175Z,101268.51
2022-08-10T07:34:28.722Z,101265.03
2022-08-10T07:37:01.783Z,101270.59
2022-08-10T07:40:03.219Z,101277.13
2022-08-10T07:42:31.059Z,101275.14
2022-08-10T07:44:59.658Z,101274.62
2022-08-10T07:47:53.163Z,101272.53
2022-08-10T07:50:22.303Z,101272.68
2022-08-10T07:52:53.508Z,101272.72
2022-08-10T07:56:04.252Z,101274.13
2022-08-10T07:58:11.504Z,101273.26
2022-08-10T08:00:40.717Z,101276.86
2022-08-10T08:03:10.762Z,101276.92
2022-08-10T08:05:59.077Z,101277.77
2022-08-10T08:08:30.563Z,101275.07
2022-08-10T08:10:59.540Z,101274.54
2022-08-10T08:13:28.735Z,101269.66
2022-08-10T08:16:16.950Z,101270.86
2022-08-10T08:19:03.728Z,101265.89
2022-08-10T08:24:09.604Z,101268.02
2022-08-10T08:24:32.506Z,101260.69
2022-08-10T08:27:03.462Z,101259.73
2022-08-10T08:29:37.354Z,101262.31
2022-08-10T08:32:06.525Z,101260.16
2022-08-10T08:34:38.698Z,101254.42
2022-08-10T08:37:09.429Z,101256.59
2022-08-10T08:39:37.929Z,101258.86
2022-08-10T08:42:44.627Z,101255.95
2022-08-10T08:45:28.266Z,101246.95
2022-08-10T08:48:32.147Z,101252.89
2022-08-10T08:51:02.305Z,101245.44
2022-08-10T08:54:04.072Z,101240.77
2022-08-10T08:56:49.581Z,101249.11
2022-08-10T08:59:46.458Z,101245.50
2022-08-10T09:02:26.487Z,101245.39
2022-08-10T09:05:26.185Z,101242.36
2022-08-10T09:08:17.127Z,101241.05
2022-08-10T09:11:00.763Z,101235.98
2022-08-10T09:14:02.133Z,101235.59
2022-08-10T09:16:52.107Z,101234.84
2022-08-10T09:19:36.325Z,101231.69
2022-08-10T09:22:21.588Z,101229.77
2022-08-10T09:24:59.143Z,101227.89
2022-08-10T09:27:36.353Z,101232.76
2022-08-10T09:30:07.996Z,101228.83
2022-08-10T09:36:25.987Z,101232.94
2022-08-10T09:36:26.998Z,101236.11
2022-08-10T09:40:06.547Z,101236.35
2022-08-10T09:42:40.293Z,101227.12
2022-08-10T09:45:32.884Z,101231.94
2022-08-10T09:48:22.111Z,101222.73
2022-08-10T09:54:07.629Z,101216.55
2022-08-10T09:57:43.241Z,101212.23
2022-08-10T10:00:08.988Z,101213.88
2022-08-10T10:02:56.423Z,101211.03
2022-08-10T10:05:50.402Z,101208.10
2022-08-10T10:08:58.227Z,101206.02
2022-08-10T10:11:36.502Z,101194.07
2022-08-10T10:14:21.014Z,101194.84
2022-08-10T10:17:20.585Z,101187.89
2022-08-10T10:20:00.918Z,101187.48
2022-08-10T10:22:44.471Z,101191.02
2022-08-10T10:25:50.763Z,101188.91
2022-08-10T10:29:06.943Z,101189.84
2022-08-10T10:31:44.501Z,101186.93
2022-08-10T10:34:40.234Z,101185.63
2022-08-10T10:37:11.243Z,101180.79
2022-08-10T10:39:50.312Z,101177.52
2022-08-10T10:42:50.083Z,101176.18
2022-08-10T10:45:24.178Z,101175.94
2022-08-10T10:48:07.729Z,101176.42
2022-08-10T10:50:50.283Z,101177.63
2022-08-10T10:53:44.484Z,101179.19
2022-08-10T10:56:35.357Z,101165.94
2022-08-10T10:59:53.995Z,101162.88
2022-08-10T11:02:40.098Z,101160.68
2022-08-10T11:05:20.208Z,101153.48
2022-08-10T11:08:01.053Z,101152.94
2022-08-10T11:10:38.560Z,101151.48
2022-08-10T11:14:25.929Z,101159.27
2022-08-10T11:16:13.297Z,101158.08
2022-08-10T11:18:57.470Z,101156.77
2022-08-10T11:21:35.736Z,101146.69
2022-08-10T11:24:47.147Z,101150.30
2022-08-10T11:27:21.925Z,101158.42
2022-08-10T11:30:02.648Z,101146.20
2022-08-10T11:32:59.150Z,101146.89
2022-08-10T11:35:58.664Z,101139.28
2022-08-10T11:39:11.183Z,101143.27
2022-08-10T11:42:09.157Z,101144.14
2022-08-10T11:44:56.990Z,101141.52
2022-08-10T11:47:35.954Z,101135.29
2022-08-10T11:50:11.677Z,101138.09
2022-08-10T11:52:55.206Z,101137.73
2022-08-10T11:55:27.309Z,101133.27
2022-08-10T11:57:59.850Z,101129.63
2022-08-10T12:00:34.975Z,101124.90
2022-08-10T12:03:07.337Z,101120.38
2022-08-10T12:05:54.166Z,101116.34
2022-08-10T12:10:05.426Z,101122.55
2022-08-10T12:11:22.424Z,101119.98
2022-08-10T12:14:20.399Z,101116.97
2022-08-10T12:16:52.418Z,101112.90
2022-08-10T12:19:59.055Z,101116.39
2022-08-10T12:22:30.896Z,101106.23
2022-08-10T18:21:41.852Z,101024.63
2022-08-10T18:24:16.290Z,101027.17
2022-08-10T18:26:47.554Z,101030.08
2022-08-10T18:29:21.834Z,101035.27
2022-08-10T18:31:56.185Z,101037.84
2022-08-10T18:34:25.140Z,101038.11
2022-08-10T18:36:53.948Z,101036.60
2022-08-10T18:39:32.666Z,101038.00
2022-08-10T18:42:14.833Z,101038.69
2022-08-10T18:44:50.146Z,101042.96
2022-08-10T18:47:26.515Z,101047.91
2022-08-10T18:50:12.239Z,101044.64
2022-08-10T18:52:43.540Z,101046.73
2022-08-10T18:55:24.504Z,101048.00
2022-08-10T18:58:04.588Z,101051.39
2022-08-10T19:00:44.332Z,101056.34
2022-08-10T19:03:30.307Z,101052.81
2022-08-10T19:06:07.027Z,101057.66
2022-08-10T19:09:45.967Z,101062.94
2022-08-10T19:12:30.850Z,101064.84
2022-08-10T19:15:20.453Z,101068.70
2022-08-10T19:18:10.960Z,101072.77
2022-08-10T19:20:51.007Z,101071.67
2022-08-10T19:23:34.640Z,101072.89
2022-08-10T19:26:45.008Z,101076.91
2022-08-10T19:30:09.946Z,101081.38
2022-08-10T19:32:45.894Z,101080.88
2022-08-10T19:36:04.368Z,101086.69
2022-08-10T19:38:50.389Z,101089.84
2022-08-10T19:41:44.287Z,101083.95
2022-08-10T19:44:22.340Z,101085.96
2022-08-10T19:47:09.617Z,101081.95
2022-08-10T19:49:55.193Z,101079.44
2022-08-10T19:52:42.569Z,101083.03
2022-08-10T19:55:28.902Z,101088.30
2022-08-10T19:57:59.807Z,101093.67
2022-08-10T20:00:56.851Z,101090.80
2022-08-10T20:03:46.684Z,101086.78
2022-08-10T20:06:20.911Z,101088.27
2022-08-10T20:09:06.394Z,101083.58
2022-08-10T20:12:05.975Z,101082.09
2022-08-10T20:14:41.816Z,101079.75
2022-08-10T20:17:51.063Z,101081.89
2022-08-10T20:20:35.609Z,101082.10
2022-08-10T20:23:42.004Z,101082.23
2022-08-10T20:26:33.885Z,101078.39
2022-08-10T20:29:16.238Z,101078.21
2022-08-10T20:32:06.030Z,101074.73
2022-08-10T20:34:44.651Z,101071.39
2022-08-10T20:37:44.913Z,101070.63
2022-08-10T20:40:20.711Z,101066.05
2022-08-10T20:43:18.325Z,101062.50
2022-08-10T20:46:10.185Z,101066.89
2022-08-10T20:48:47.291Z,101065.64
2022-08-10T20:51:58.319Z,101069.89
2022-08-10T20:54:18.182Z,101072.01
2022-08-10T20:57:54.830Z,101072.98
2022-08-10T21:00:11.290Z,101074.61
2022-08-10T21:03:15.884Z,101073.19
2022-08-10T21:06:13.857Z,101067.44
2022-08-10T21:08:57.371Z,101070.21
2022-08-10T21:11:57.532Z,101071.27
2022-08-10T21:14:59.143Z,101071.45
2022-08-10T21:17:48.870Z,101069.90
2022-08-10T21:20:47.102Z,101067.20
2022-08-10T21:23:17.777Z,101068.02
2022-08-10T21:26:08.629Z,101069.42
2022-08-10T21:29:08.445Z,101067.00
2022-08-10T21:31:41.835Z,101069.88
2022-08-10T21:34:19.517Z,101071.27
2022-08-10T21:37:12.172Z,101064.36
2022-08-10T21:39:48.198Z,101063.06
2022-08-10T21:42:50.325Z,101062.95
2022-08-10T21:45:58.084Z,101062.63
2022-08-10T21:49:07.060Z,101054.77
2022-08-10T21:52:04.069Z,101055.70
2022-08-10T21:54:48.789Z,101051.92
2022-08-10T21:57:44.129Z,101053.84
2022-08-10T22:00:30.093Z,101054.18
2022-08-10T22:03:18.046Z,101053.72
2022-08-10T22:06:09.333Z,101056.98
2022-08-10T22:08:58.924Z,101058.54
2022-08-10T22:11:45.921Z,101060.94
2022-08-10T22:14:40.959Z,101059.57
2022-08-10T22:17:59.381Z,101061.81
2022-08-10T22:20:53.049Z,101058.41
2022-08-10T22:23:52.657Z,101055.25
2022-08-10T22:27:01.669Z,101060.21
2022-08-10T22:29:54.135Z,101061.69
2022-08-10T22:32:50.152Z,101065.15
2022-08-10T22:35:52.636Z,101060.44
2022-08-10T22:38:56.049Z,101063.73
2022-08-10T22:42:08.660Z,101065.39
2022-08-10T22:45:01.096Z,101062.77
2022-08-10T22:47:48.932Z,101056.80
2022-08-10T22:50:24.535Z,101058.23
2022-08-10T22:53:05.778Z,101055.11
2022-08-10T22:55:53.285Z,101057.94
2022-08-10T22:58:47.462Z,101052.63
2022-08-10T23:01:39.199Z,101052.58
2022-08-10T23:04:28.246Z,101049.73
2022-08-10T23:07:10.285Z,101051.08
2022-08-10T23:09:42.267Z,101044.60
2022-08-10T23:12:16.086Z,101044.06
2022-08-10T23:14:59.327Z,101049.81
2022-08-10T23:18:01.875Z,101046.86
2022-08-10T23:20:34.318Z,101049.81
2022-08-10T23:23:09.088Z,101050.39
2022-08-10T23:25:57.046Z,101049.23
2022-08-10T23:28:38.567Z,101050.70
2022-08-10T23:31:17.720Z,101047.95
2022-08-10T23:34:06.737Z,101046.40
2022-08-10T23:36:39.275Z,101047.31
2022-08-10T23:39:25.920Z,101043.89
2022-08-10T23:42:07.722Z,101048.19
2022-08-10T23:44:56.659Z,101045.33
2022-08-10T23:47:26.917Z,101041.67
2022-08-10T23:49:57.857Z,101043.69
2022-08-10T23:52:31.761Z,101046.23
2022-08-10T23:55:04.737Z,101048.17
2022-08-10T23:57:35.001Z,101046.35
